Time;durP1;ratioP1;P1;durP2;ratioP2;P2;SDS_P1;SDS_P2;PMS_P1;PMS_P2;Temp;Humidity;BMP_temperature;BMP_pressure;BME280_temperature;BME280_humidity;BME280_pressure;Samples;Min_cycle;Max_cycle;Signal;HPM_P1;HPM_P2
2022/04/01 00:00:38;;;;;;;6.65;2.22;;;0.40;99.90;;;;;;5056489;28;20388;-64
2022/04/01 00:03:05;;;;;;;6.15;2.30;;;0.40;99.90;;;;;;5059328;28;20070;-64
2022/04/01 00:05:33;;;;;;;8.15;3.20;;;0.40;99.90;;;;;;5065298;28;20083;-63
2022/04/01 00:07:59;;;;;;;4.75;1.95;;;0.40;99.90;;;;;;5056307;28;20041;-63
2022/04/01 00:10:26;;;;;;;6.32;2.25;;;0.40;99.90;;;;;;5058351;28;20051;-63
2022/04/01 00:12:52;;;;;;;5.55;2.22;;;0.40;99.90;;;;;;5060492;28;20221;-63
2022/04/01 00:15:17;;;;;;;4.70;2.13;;;0.40;99.90;;;;;;5055260;28;20260;-64
2022/04/01 00:17:44;;;;;;;7.65;2.83;;;0.40;99.90;;;;;;5056722;28;20045;-63
2022/04/01 00:20:13;;;;;;;6.60;2.00;;;0.40;99.90;;;;;;5054930;28;20045;-64
2022/04/01 00:22:40;;;;;;;3.58;1.73;;;0.40;99.90;;;;;;5054408;28;20555;-63
2022/04/01 00:25:07;;;;;;;9.23;2.28;;;0.50;99.90;;;;;;5053237;28;20076;-63
2022/04/01 00:27:33;;;;;;;5.53;1.83;;;0.50;99.90;;;;;;5059522;28;20045;-63
2022/04/01 00:29:58;;;;;;;7.50;2.50;;;0.50;99.90;;;;;;5054087;28;20051;-63
2022/04/01 00:32:24;;;;;;;6.05;2.72;;;0.50;99.90;;;;;;5058298;28;20041;-63
2022/04/01 00:34:51;;;;;;;6.82;1.73;;;0.50;99.90;;;;;;5060631;28;20115;-63
2022/04/01 00:37:17;;;;;;;4.55;2.40;;;0.50;99.90;;;;;;5058081;28;20037;-63
2022/04/01 00:39:43;;;;;;;4.47;2.20;;;0.50;99.90;;;;;;5057928;28;20082;-63
2022/04/01 00:42:08;;;;;;;3.78;2.10;;;0.50;99.90;;;;;;5057908;28;20067;-64
2022/04/01 00:44:37;;;;;;;8.00;2.50;;;0.50;99.90;;;;;;5059741;28;20051;-64
2022/04/01 00:47:06;;;;;;;5.45;2.00;;;0.50;99.90;;;;;;5058509;28;20049;-64
2022/04/01 00:49:32;;;;;;;3.35;1.80;;;0.40;99.90;;;;;;5055403;28;20656;-64
2022/04/01 00:52:00;;;;;;;5.97;2.10;;;0.50;99.90;;;;;;5061770;28;20043;-64
2022/04/01 00:54:27;;;;;;;7.25;2.08;;;0.40;99.90;;;;;;5068459;28;20033;-62
2022/04/01 00:56:54;;;;;;;4.50;1.83;;;0.40;99.90;;;;;;5070158;28;20557;-63
2022/04/01 00:59:21;;;;;;;5.28;2.38;;;0.40;99.90;;;;;;5050038;28;20046;-63
2022/04/01 01:01:49;;;;;;;6.22;1.20;;;0.40;99.90;;;;;;5060595;28;20056;-63
2022/04/01 01:04:16;;;;;;;5.25;1.70;;;0.50;99.90;;;;;;5061813;28;20535;-64
2022/04/01 01:06:44;;;;;;;2.90;1.45;;;0.50;99.90;;;;;;5059074;28;20098;-63
2022/04/01 01:09:11;;;;;;;6.65;1.55;;;0.50;99.90;;;;;;5059854;28;20637;-64
2022/04/01 01:11:38;;;;;;;3.47;1.35;;;0.60;99.90;;;;;;5061230;28;20045;-63
2022/04/01 01:14:09;;;;;;;2.33;1.17;;;0.70;99.90;;;;;;5058185;28;20550;-63
2022/04/01 01:16:36;;;;;;;5.47;1.60;;;0.70;99.90;;;;;;5055971;28;20048;-63
2022/04/01 01:19:05;;;;;;;4.18;1.10;;;0.70;99.90;;;;;;5061383;28;20055;-63
2022/04/01 01:21:31;;;;;;;3.65;1.40;;;0.70;99.90;;;;;;5059024;28;20052;-62
2022/04/01 01:24:11;;;;;;;3.83;1.73;;;0.80;99.90;;;;;;5058245;28;20075;-63
2022/04/01 01:26:38;;;;;;;4.55;1.10;;;0.80;99.90;;;;;;5055891;28;20049;-63
2022/04/01 01:29:06;;;;;;;5.78;2.00;;;0.80;99.90;;;;;;5059780;28;20037;-63
2022/04/01 01:31:32;;;;;;;2.33;1.08;;;0.80;99.90;;;;;;5057978;28;20079;-63
2022/04/01 01:33:58;;;;;;;2.30;1.00;;;0.90;99.90;;;;;;5058622;28;20053;-63
2022/04/01 01:36:28;;;;;;;3.65;1.20;;;0.90;99.90;;;;;;5059844;28;20070;-63
2022/04/01 01:38:54;;;;;;;2.75;1.20;;;1.00;99.90;;;;;;5060756;28;20037;-63
2022/04/01 01:41:20;;;;;;;3.47;1.38;;;1.00;99.90;;;;;;5057814;28;20055;-64
2022/04/01 01:43:47;;;;;;;2.72;1.38;;;1.00;99.90;;;;;;5060635;28;20044;-62
2022/04/01 01:46:12;;;;;;;3.92;1.48;;;1.10;99.90;;;;;;5062519;28;20047;-64
2022/04/01 01:48:38;;;;;;;3.28;1.27;;;1.10;99.90;;;;;;5063486;28;20049;-63
2022/04/01 01:56:34;;;;;;;4.13;1.30;;;1.20;99.90;;;;;;5066051;28;20052;-64
2022/04/01 01:59:00;;;;;;;7.47;2.30;;;1.30;99.90;;;;;;5066137;28;20047;-63
2022/04/01 02:01:25;;;;;;;6.88;1.63;;;1.30;99.90;;;;;;5062345;28;20044;-63
2022/04/01 02:03:51;;;;;;;4.75;2.45;;;1.30;99.90;;;;;;5065608;28;20052;-63
2022/04/01 02:06:21;;;;;;;5.70;1.30;;;1.40;99.90;;;;;;5061794;28;20024;-63
2022/04/01 02:08:48;;;;;;;7.30;1.60;;;1.40;99.90;;;;;;5061158;28;20048;-63
2022/04/01 02:11:14;;;;;;;5.53;1.85;;;1.40;99.90;;;;;;5057439;28;20044;-63
2022/04/01 02:13:39;;;;;;;7.97;1.73;;;1.40;99.90;;;;;;5065106;28;20053;-63
2022/04/01 02:16:05;;;;;;;12.45;2.05;;;1.50;99.90;;;;;;5060264;28;20049;-63
2022/04/01 02:18:31;;;;;;;8.32;1.45;;;1.50;99.90;;;;;;5064231;28;20043;-63
2022/04/01 02:20:56;;;;;;;2.83;1.30;;;1.50;99.90;;;;;;5061722;28;20069;-62
2022/04/01 02:23:22;;;;;;;12.35;1.70;;;1.60;99.90;;;;;;5062053;28;20048;-61
2022/04/01 02:25:48;;;;;;;6.85;1.95;;;1.70;99.90;;;;;;5063110;28;21452;-62
2022/04/01 02:28:13;;;;;;;6.22;1.58;;;1.70;99.90;;;;;;5063942;28;20172;-62
2022/04/01 02:30:39;;;;;;;7.03;1.80;;;1.70;99.90;;;;;;5062944;28;20527;-63
2022/04/01 02:33:08;;;;;;;6.25;1.73;;;1.80;99.90;;;;;;5062360;28;20523;-63
2022/04/01 02:35:34;;;;;;;7.88;1.50;;;1.70;99.90;;;;;;5063506;28;20051;-62
2022/04/01 02:38:02;;;;;;;7.47;1.58;;;1.70;99.90;;;;;;5061154;28;20420;-63
2022/04/01 02:40:28;;;;;;;4.18;1.33;;;1.80;99.90;;;;;;5063645;28;20064;-63
2022/04/01 02:42:54;;;;;;;6.22;2.08;;;1.80;99.90;;;;;;5059832;28;20059;-62
2022/04/01 02:45:22;;;;;;;6.47;1.58;;;1.80;99.90;;;;;;5064214;28;20047;-63
2022/04/01 02:47:47;;;;;;;5.13;1.70;;;1.80;99.90;;;;;;5053990;28;20048;-63
2022/04/01 02:50:14;;;;;;;5.70;1.70;;;1.80;99.90;;;;;;5060522;28;20041;-63
2022/04/01 02:52:40;;;;;;;9.27;2.30;;;1.80;99.90;;;;;;5061004;28;20050;-63
2022/04/01 02:55:06;;;;;;;2.58;1.10;;;1.70;99.90;;;;;;5059014;28;20060;-63
2022/04/01 02:57:33;;;;;;;6.75;1.95;;;1.70;99.90;;;;;;5063487;28;20046;-62
2022/04/01 02:59:59;;;;;;;5.75;2.13;;;1.80;99.90;;;;;;5055818;28;20098;-63
2022/04/01 03:02:25;;;;;;;7.18;1.60;;;1.80;99.90;;;;;;5057346;28;20515;-63
2022/04/01 03:04:51;;;;;;;7.43;1.60;;;1.80;99.90;;;;;;5061997;28;20700;-63
2022/04/01 03:07:16;;;;;;;7.25;1.77;;;1.80;99.90;;;;;;5058712;28;20048;-63
2022/04/01 03:09:42;;;;;;;4.10;1.40;;;1.80;99.90;;;;;;5054789;28;20049;-64
2022/04/01 03:12:08;;;;;;;6.05;1.17;;;1.80;99.90;;;;;;5056500;28;20075;-64
2022/04/01 03:14:33;;;;;;;5.50;1.27;;;1.90;99.90;;;;;;5064142;28;20101;-64
2022/04/01 03:16:59;;;;;;;4.68;1.17;;;1.90;99.90;;;;;;5063269;28;20412;-64
2022/04/01 03:19:25;;;;;;;6.32;2.22;;;1.90;99.90;;;;;;5064268;28;20040;-63
2022/04/01 03:21:51;;;;;;;5.38;1.05;;;1.90;99.90;;;;;;5061050;28;20546;-64
2022/04/01 03:24:16;;;;;;;4.78;1.67;;;1.90;99.90;;;;;;5078176;28;20420;-64
2022/04/01 03:26:42;;;;;;;7.68;1.63;;;1.90;99.90;;;;;;5063910;28;20052;-64
2022/04/01 03:29:10;;;;;;;4.60;1.40;;;1.90;99.90;;;;;;5060840;28;20045;-64
2022/04/01 03:31:37;;;;;;;5.80;1.65;;;1.90;99.90;;;;;;5063506;28;20040;-63
2022/04/01 03:34:06;;;;;;;5.47;1.40;;;1.90;99.90;;;;;;5060008;28;20497;-64
2022/04/01 03:36:33;;;;;;;4.00;1.15;;;1.90;99.90;;;;;;5060284;28;20086;-63
2022/04/01 03:38:59;;;;;;;4.45;1.42;;;1.90;99.90;;;;;;5059749;28;20608;-64
2022/04/01 03:41:25;;;;;;;5.10;1.55;;;1.90;99.90;;;;;;5061113;28;20074;-64
2022/04/01 03:43:54;;;;;;;3.42;1.27;;;1.90;99.90;;;;;;5064212;28;20613;-64
2022/04/01 03:46:24;;;;;;;5.45;1.60;;;1.90;99.90;;;;;;5055214;28;20048;-63
2022/04/01 03:49:19;;;;;;;5.43;1.55;;;1.90;99.90;;;;;;5056946;28;20444;-63
2022/04/01 03:51:49;;;;;;;4.30;1.50;;;1.90;99.90;;;;;;5057273;28;20044;-64
2022/04/01 03:54:15;;;;;;;4.20;1.75;;;2.00;99.90;;;;;;5057105;28;20369;-64
2022/04/01 03:56:47;;;;;;;3.63;1.15;;;2.00;99.90;;;;;;5061199;28;20114;-64
2022/04/01 03:59:15;;;;;;;4.28;1.88;;;2.00;99.90;;;;;;5062241;28;20041;-64
2022/04/01 04:01:40;;;;;;;5.05;1.30;;;2.00;99.90;;;;;;5060018;28;20040;-64
2022/04/01 04:04:07;;;;;;;5.32;1.55;;;2.00;99.90;;;;;;5058019;28;20083;-65
2022/04/01 04:06:38;;;;;;;4.50;1.33;;;2.00;99.90;;;;;;5060910;28;20547;-63
2022/04/01 04:09:04;;;;;;;9.50;2.10;;;2.10;99.90;;;;;;5058922;28;20037;-64
2022/04/01 04:11:32;;;;;;;5.93;1.95;;;2.10;99.90;;;;;;5066324;28;20067;-64
2022/04/01 04:14:01;;;;;;;7.15;1.50;;;2.10;99.90;;;;;;5056996;28;20144;-63
2022/04/01 04:16:30;;;;;;;5.82;1.50;;;2.10;99.90;;;;;;5055906;28;20054;-63
2022/04/01 04:19:03;;;;;;;5.32;1.42;;;2.10;99.90;;;;;;5060631;28;20086;-63
2022/04/01 04:21:30;;;;;;;3.38;1.15;;;2.10;99.90;;;;;;5057233;28;20098;-63
2022/04/01 04:23:58;;;;;;;9.40;2.05;;;2.00;99.90;;;;;;5056789;28;20108;-63
2022/04/01 04:26:47;;;;;;;4.80;1.58;;;2.00;99.90;;;;;;5059821;28;20130;-63
2022/04/01 04:29:15;;;;;;;6.68;1.63;;;2.00;99.90;;;;;;5057725;28;20151;-63
2022/04/01 04:31:59;;;;;;;7.22;1.50;;;2.00;99.90;;;;;;5058143;28;20044;-63
2022/04/01 04:34:30;;;;;;;3.45;1.65;;;2.00;99.90;;;;;;5056101;28;20069;-69
2022/04/01 04:36:58;;;;;;;5.60;1.85;;;2.00;99.90;;;;;;5055174;28;20045;-68
2022/04/01 04:39:33;;;;;;;4.82;1.50;;;2.10;99.90;;;;;;5052312;28;20175;-68
2022/04/01 04:42:01;;;;;;;7.22;1.80;;;2.10;99.90;;;;;;5052140;28;20051;-68
2022/04/01 04:44:29;;;;;;;6.75;1.40;;;2.10;99.90;;;;;;5055736;28;20546;-67
2022/04/01 04:47:03;;;;;;;6.43;1.40;;;2.10;99.90;;;;;;5058109;28;20057;-67
2022/04/01 04:49:29;;;;;;;5.25;1.48;;;2.10;99.90;;;;;;5057285;28;20048;-71
2022/04/01 04:51:57;;;;;;;3.70;1.15;;;2.10;99.90;;;;;;5059436;28;20052;-68
2022/04/01 04:54:26;;;;;;;6.03;1.38;;;2.20;99.90;;;;;;5061382;28;20036;-69
2022/04/01 04:56:55;;;;;;;2.78;1.30;;;2.10;99.90;;;;;;5060858;28;20036;-67
2022/04/01 04:59:22;;;;;;;4.13;1.70;;;2.10;99.90;;;;;;5056550;28;20045;-68
2022/04/01 05:01:55;;;;;;;5.28;1.40;;;2.10;99.90;;;;;;5059597;28;20056;-68
2022/04/01 05:04:56;;;;;;;7.50;2.55;;;2.10;99.90;;;;;;5054320;28;20056;-68
2022/04/01 05:07:32;;;;;;;6.18;1.73;;;2.10;99.90;;;;;;5044937;28;20109;-67
2022/04/01 05:10:29;;;;;;;4.45;1.42;;;2.10;99.90;;;;;;5046849;28;20037;-68
2022/04/01 05:13:08;;;;;;;5.32;1.73;;;2.10;99.90;;;;;;5057281;28;20048;-68
2022/04/01 05:15:36;;;;;;;5.38;1.65;;;2.10;99.90;;;;;;5054918;28;20499;-68
2022/04/01 05:18:08;;;;;;;7.70;2.63;;;2.10;99.90;;;;;;5058158;28;20052;-69
2022/04/01 05:20:44;;;;;;;9.82;2.13;;;2.10;99.90;;;;;;5057472;28;20062;-68
2022/04/01 05:23:24;;;;;;;10.33;2.23;;;2.10;99.90;;;;;;5054997;28;20045;-68
2022/04/01 05:25:56;;;;;;;3.85;1.52;;;2.10;99.90;;;;;;5063643;28;20356;-67
2022/04/01 05:28:25;;;;;;;3.40;1.52;;;2.10;99.90;;;;;;5062938;28;20049;-70
2022/04/01 05:31:04;;;;;;;3.17;1.75;;;2.10;99.90;;;;;;5059303;28;20098;-68
2022/04/01 05:33:51;;;;;;;8.48;2.10;;;2.10;99.90;;;;;;5059114;28;20090;-67
2022/04/01 05:36:17;;;;;;;5.15;1.92;;;2.10;99.90;;;;;;5060628;28;20067;-69
2022/04/01 05:38:43;;;;;;;8.45;2.00;;;2.20;99.90;;;;;;5063718;28;20044;-70
2022/04/01 05:41:11;;;;;;;6.57;1.70;;;2.20;99.90;;;;;;5066692;28;20487;-69
2022/04/01 05:43:38;;;;;;;3.67;1.75;;;2.20;99.90;;;;;;5060906;28;20040;-70
2022/04/01 05:46:05;;;;;;;9.00;2.20;;;2.20;99.90;;;;;;5058832;28;20048;-70
2022/04/01 05:48:32;;;;;;;6.25;2.17;;;2.20;99.90;;;;;;5064862;28;20102;-69
2022/04/01 05:50:59;;;;;;;7.13;1.58;;;2.20;99.90;;;;;;5059888;28;20124;-67
2022/04/01 05:53:25;;;;;;;8.70;1.80;;;2.30;99.90;;;;;;5063034;28;20041;-67
2022/04/01 05:55:54;;;;;;;7.95;1.83;;;2.30;99.90;;;;;;5065921;28;20035;-66
2022/04/01 05:58:22;;;;;;;5.45;1.70;;;2.30;99.90;;;;;;5068138;28;20057;-68
2022/04/01 06:01:01;;;;;;;5.88;1.48;;;2.30;99.90;;;;;;5067998;28;21074;-69
2022/04/01 06:04:21;;;;;;;7.22;1.67;;;2.40;99.90;;;;;;5058131;28;20134;-69
2022/04/01 06:06:49;;;;;;;5.55;1.60;;;2.30;99.90;;;;;;5030521;28;20422;-69
2022/04/01 06:09:38;;;;;;;4.82;1.63;;;2.30;99.90;;;;;;5061020;28;20269;-70
2022/04/01 06:12:23;;;;;;;4.85;1.63;;;2.40;99.90;;;;;;5057986;28;20028;-69
2022/04/01 06:15:02;;;;;;;6.10;1.98;;;2.40;99.90;;;;;;5059523;28;20496;-68
2022/04/01 06:17:40;;;;;;;4.10;1.50;;;2.40;99.90;;;;;;5063861;28;20044;-69
2022/04/01 06:20:07;;;;;;;5.70;1.67;;;2.40;99.90;;;;;;5063782;28;20062;-68
2022/04/01 06:22:41;;;;;;;6.97;1.73;;;2.40;99.90;;;;;;5062835;28;20581;-69
2022/04/01 06:25:13;;;;;;;5.40;1.58;;;2.40;99.90;;;;;;5056337;28;20053;-70
2022/04/01 06:27:44;;;;;;;6.93;1.67;;;2.40;99.90;;;;;;5064423;28;20037;-70
2022/04/01 06:30:17;;;;;;;5.82;1.85;;;2.40;99.90;;;;;;5056335;28;20110;-72
2022/04/01 06:33:00;;;;;;;3.90;1.42;;;2.40;99.90;;;;;;5064119;28;20058;-70
2022/04/01 06:35:35;;;;;;;6.17;1.93;;;2.40;99.90;;;;;;5059083;28;20044;-69
2022/04/01 06:38:00;;;;;;;7.38;1.63;;;2.50;99.90;;;;;;5059391;28;20451;-68
2022/04/01 06:40:39;;;;;;;5.80;1.35;;;2.50;99.90;;;;;;5058418;28;20048;-69
2022/04/01 06:43:05;;;;;;;5.88;1.27;;;2.50;99.90;;;;;;5059548;28;20709;-69
2022/04/01 06:45:31;;;;;;;3.63;1.45;;;2.50;99.90;;;;;;5055419;28;20127;-69
2022/04/01 06:47:56;;;;;;;2.85;1.90;;;2.50;99.90;;;;;;5057263;28;20045;-71
2022/04/01 06:50:22;;;;;;;3.25;1.55;;;2.50;99.90;;;;;;5061191;28;20037;-70
2022/04/01 06:52:48;;;;;;;5.00;1.48;;;2.50;99.90;;;;;;5060851;28;20053;-70
2022/04/01 06:55:14;;;;;;;3.78;1.60;;;2.50;99.90;;;;;;5064241;28;20079;-71
2022/04/01 06:57:40;;;;;;;3.47;1.45;;;2.50;99.90;;;;;;5064203;28;20152;-70
2022/04/01 07:00:11;;;;;;;5.45;1.50;;;2.60;99.90;;;;;;5061443;28;20045;-70
2022/04/01 07:02:37;;;;;;;3.30;1.88;;;2.60;99.90;;;;;;5057634;28;20492;-70
2022/04/01 07:05:03;;;;;;;5.55;1.67;;;2.60;99.90;;;;;;5061107;28;21243;-68
2022/04/01 07:07:29;;;;;;;5.38;1.50;;;2.60;99.90;;;;;;5055352;28;20110;-68
2022/04/01 07:09:55;;;;;;;5.38;1.65;;;2.60;99.90;;;;;;5055620;28;20041;-70
2022/04/01 07:12:23;;;;;;;7.18;2.90;;;2.70;99.90;;;;;;5060028;28;20064;-70
2022/04/01 07:14:50;;;;;;;10.35;3.25;;;2.70;99.90;;;;;;5062976;28;20071;-70
2022/04/01 07:17:15;;;;;;;7.57;2.72;;;2.80;99.90;;;;;;5052748;28;20460;-70
2022/04/01 07:19:41;;;;;;;6.40;2.13;;;2.80;99.90;;;;;;5052908;28;20072;-71
2022/04/01 07:22:07;;;;;;;9.48;2.15;;;2.80;99.90;;;;;;5054616;28;20115;-70
2022/04/01 07:24:33;;;;;;;8.48;2.47;;;2.80;99.90;;;;;;5057450;28;20045;-70
2022/04/01 07:27:00;;;;;;;6.05;2.33;;;2.80;99.90;;;;;;5058747;28;20407;-70
2022/04/01 07:29:26;;;;;;;4.00;1.60;;;2.90;99.90;;;;;;5060999;28;20132;-71
2022/04/01 07:34:42;;;;;;;5.45;1.63;;;2.90;99.90;;;;;;5058747;28;20500;-70
2022/04/01 07:37:09;;;;;;;7.47;1.50;;;2.90;99.90;;;;;;5055844;28;20048;-70
2022/04/01 07:39:35;;;;;;;3.70;2.00;;;3.00;99.90;;;;;;5056432;28;20037;-70
2022/04/01 07:42:01;;;;;;;8.80;1.83;;;3.00;99.90;;;;;;5059952;28;20106;-70
2022/04/01 07:44:27;;;;;;;5.15;1.63;;;3.00;99.90;;;;;;5059297;28;20129;-70
2022/04/01 07:46:53;;;;;;;7.13;2.08;;;3.10;99.90;;;;;;5054971;28;20448;-72
2022/04/01 07:49:19;;;;;;;7.85;1.98;;;3.10;99.90;;;;;;5060843;28;20044;-71
2022/04/01 07:51:45;;;;;;;6.18;2.00;;;3.10;99.90;;;;;;5062758;28;20047;-80
2022/04/01 07:54:12;;;;;;;3.45;1.52;;;3.20;99.90;;;;;;5059167;28;20160;-78
2022/04/01 07:56:40;;;;;;;9.00;1.75;;;3.20;99.90;;;;;;5065527;28;20400;-73
2022/04/01 07:59:07;;;;;;;5.45;2.13;;;3.20;99.90;;;;;;5056779;28;20488;-72
2022/04/01 08:01:34;;;;;;;3.47;1.63;;;3.20;99.90;;;;;;5050292;28;20044;-72
2022/04/01 08:03:59;;;;;;;3.45;1.60;;;3.30;99.90;;;;;;5062715;28;20056;-73
2022/04/01 08:06:25;;;;;;;3.65;2.03;;;3.30;99.90;;;;;;5058233;28;20467;-75
2022/04/01 08:08:51;;;;;;;3.45;1.40;;;3.30;99.90;;;;;;5057841;28;20059;-76
2022/04/01 08:11:16;;;;;;;8.57;1.60;;;3.30;99.90;;;;;;5057908;28;20042;-75
2022/04/01 08:13:42;;;;;;;7.40;1.80;;;3.30;99.90;;;;;;5054702;28;20104;-69
2022/04/01 08:16:08;;;;;;;4.47;1.60;;;3.40;99.90;;;;;;5055457;28;20163;-69
2022/04/01 08:18:34;;;;;;;4.07;2.08;;;3.40;99.90;;;;;;5060076;28;20052;-69
2022/04/01 08:21:00;;;;;;;6.25;1.52;;;3.50;99.90;;;;;;5058819;28;20045;-68
2022/04/01 08:23:34;;;;;;;5.10;1.30;;;3.50;99.90;;;;;;5069854;28;20052;-68
2022/04/01 08:26:04;;;;;;;1.45;0.90;;;3.60;99.90;;;;;;5057525;28;20526;-69
2022/04/01 08:28:30;;;;;;;7.50;1.65;;;3.60;99.90;;;;;;5058534;28;20106;-70
2022/04/01 08:30:56;;;;;;;6.20;2.00;;;3.60;99.90;;;;;;5061641;28;20036;-70
2022/04/01 08:33:21;;;;;;;5.38;1.50;;;3.70;99.90;;;;;;5056739;28;20519;-69
2022/04/01 08:35:48;;;;;;;4.05;1.75;;;3.70;99.90;;;;;;5062161;28;20431;-69
2022/04/01 08:38:14;;;;;;;5.22;1.27;;;3.80;99.90;;;;;;5059806;28;20407;-69
2022/04/01 08:40:39;;;;;;;5.60;1.13;;;3.80;99.90;;;;;;5057758;28;20044;-69
2022/04/01 08:43:05;;;;;;;3.92;1.35;;;3.80;99.90;;;;;;5053549;28;20051;-70
2022/04/01 08:45:33;;;;;;;3.97;1.30;;;3.80;99.90;;;;;;5055957;28;20059;-68
2022/04/01 08:48:01;;;;;;;5.68;1.92;;;3.70;99.90;;;;;;5059454;28;20043;-67
2022/04/01 08:50:26;;;;;;;5.55;1.70;;;3.70;99.90;;;;;;5059714;28;20403;-67
2022/04/01 08:52:52;;;;;;;6.20;1.40;;;3.70;99.90;;;;;;5060113;28;20040;-68
2022/04/01 08:55:19;;;;;;;3.97;1.23;;;3.70;99.90;;;;;;5054923;28;20032;-70
2022/04/01 08:57:45;;;;;;;7.20;1.90;;;3.70;99.90;;;;;;5052757;28;20071;-70
2022/04/01 09:00:13;;;;;;;5.97;2.28;;;3.70;99.90;;;;;;5052397;28;20060;-70
2022/04/01 09:02:39;;;;;;;8.15;1.85;;;3.70;99.90;;;;;;5055131;28;20041;-70
2022/04/01 09:05:06;;;;;;;4.32;2.05;;;3.80;99.90;;;;;;5057136;28;20047;-71
2022/04/01 09:07:32;;;;;;;4.20;1.50;;;3.80;99.90;;;;;;5055408;28;20056;-71
2022/04/01 09:10:03;;;;;;;4.65;1.70;;;3.80;99.90;;;;;;5055646;28;20043;-71
2022/04/01 09:12:29;;;;;;;7.20;1.88;;;3.90;99.90;;;;;;5054107;28;20143;-72
2022/04/01 09:14:56;;;;;;;5.78;1.70;;;4.00;99.90;;;;;;5057541;28;20053;-68
2022/04/01 09:17:22;;;;;;;5.15;1.58;;;4.00;99.90;;;;;;5052891;28;20043;-70
2022/04/01 09:20:01;;;;;;;6.03;2.25;;;4.00;99.90;;;;;;5057887;28;20509;-70
2022/04/01 09:22:27;;;;;;;5.32;1.80;;;4.00;99.90;;;;;;5058824;28;20102;-71
2022/04/01 09:24:54;;;;;;;4.72;2.47;;;4.00;99.90;;;;;;5059313;28;20056;-70
2022/04/01 09:27:39;;;;;;;6.47;2.25;;;4.00;99.90;;;;;;5061061;28;20522;-71
2022/04/01 09:30:07;;;;;;;3.90;1.58;;;4.00;99.90;;;;;;5055395;28;20053;-71
2022/04/01 09:32:46;;;;;;;4.38;2.20;;;4.00;99.90;;;;;;5054214;28;20416;-70
2022/04/01 09:35:13;;;;;;;3.78;2.15;;;4.10;99.90;;;;;;5052143;28;20044;-71
2022/04/01 09:37:43;;;;;;;4.43;1.60;;;4.10;99.90;;;;;;5043777;28;20068;-69
2022/04/01 09:40:11;;;;;;;5.75;1.67;;;4.20;99.90;;;;;;5059165;28;20040;-69
2022/04/01 09:42:38;;;;;;;3.88;1.70;;;4.20;99.90;;;;;;5059133;28;21712;-69
2022/04/01 09:45:04;;;;;;;3.80;1.38;;;4.10;99.90;;;;;;5055154;28;20037;-70
2022/04/01 09:47:38;;;;;;;3.90;1.60;;;4.10;99.90;;;;;;5058710;28;20140;-72
2022/04/01 09:50:11;;;;;;;;;;;4.10;99.90;;;;;;5056429;28;20496;-69
2022/04/01 09:52:37;;;;;;;4.32;1.40;;;4.10;99.90;;;;;;5053617;28;20311;-70
2022/04/01 09:55:03;;;;;;;5.47;1.40;;;4.10;99.90;;;;;;5057290;28;20036;-69
2022/04/01 09:57:29;;;;;;;2.85;1.50;;;4.10;99.90;;;;;;5054556;28;20048;-68
2022/04/01 09:59:55;;;;;;;5.97;1.90;;;4.20;99.90;;;;;;5055329;28;20045;-69
2022/04/01 10:02:21;;;;;;;3.97;1.60;;;4.20;99.90;;;;;;5057074;28;20186;-69
2022/04/01 10:04:47;;;;;;;5.45;1.60;;;4.20;99.90;;;;;;5054069;28;20126;-69
2022/04/01 10:07:12;;;;;;;4.13;1.55;;;4.30;99.90;;;;;;5053433;28;20396;-69
2022/04/01 10:09:39;;;;;;;4.13;1.77;;;4.30;99.90;;;;;;5056529;28;20064;-69
2022/04/01 10:12:12;;;;;;;4.10;1.80;;;4.30;99.90;;;;;;5062828;28;20036;-67
2022/04/01 10:14:40;;;;;;;4.38;1.73;;;4.30;99.90;;;;;;5060124;28;20053;-73
2022/04/01 10:17:10;;;;;;;4.07;1.50;;;4.40;99.90;;;;;;5063438;28;20059;-70
2022/04/01 10:19:38;;;;;;;4.47;1.92;;;4.40;99.90;;;;;;5061159;28;20616;-73
2022/04/01 10:22:05;;;;;;;6.63;1.90;;;4.40;99.90;;;;;;5056606;28;20041;-73
2022/04/01 10:24:54;;;;;;;3.95;1.60;;;4.40;99.90;;;;;;5056953;28;20048;-76
2022/04/01 10:27:40;;;;;;;5.63;1.80;;;4.50;99.90;;;;;;5060677;28;20041;-76
2022/04/01 10:30:08;;;;;;;5.35;1.35;;;4.50;99.90;;;;;;5064119;28;20060;-76
2022/04/01 10:32:40;;;;;;;7.10;2.72;;;4.50;99.90;;;;;;5061081;28;20123;-75
2022/04/01 10:35:19;;;;;;;11.10;2.08;;;4.50;99.90;;;;;;5059592;28;20033;-75
2022/04/01 10:37:45;;;;;;;2.90;1.40;;;4.50;99.90;;;;;;5063197;28;20051;-76
2022/04/01 10:40:17;;;;;;;4.10;1.63;;;4.50;99.90;;;;;;5062064;28;20040;-75
2022/04/01 10:42:45;;;;;;;5.13;1.40;;;4.50;99.90;;;;;;5064666;28;20041;-76
2022/04/01 10:45:21;;;;;;;3.75;1.23;;;4.50;99.90;;;;;;5057989;28;20045;-75
2022/04/01 10:53:45;;;;;;;2.17;0.77;;;4.60;99.90;;;;;;5058811;28;20145;-75
2022/04/01 10:56:26;;;;;;;2.08;1.20;;;4.60;99.90;;;;;;5058009;28;20044;-74
2022/04/01 10:59:10;;;;;;;3.50;0.98;;;4.70;99.90;;;;;;5058080;28;20137;-75
2022/04/01 11:02:00;;;;;;;2.22;1.27;;;4.70;99.90;;;;;;5057613;28;20068;-74
2022/04/01 11:04:36;;;;;;;3.03;1.23;;;4.70;99.90;;;;;;5042109;28;20378;-74
2022/04/01 11:07:06;;;;;;;4.13;1.20;;;4.70;99.90;;;;;;5059028;28;20036;-74
2022/04/01 11:09:39;;;;;;;2.80;1.00;;;4.70;99.90;;;;;;5063206;28;20075;-74
2022/04/01 11:12:23;;;;;;;5.78;1.30;;;4.80;99.90;;;;;;5057122;28;20049;-75
2022/04/01 11:14:55;;;;;;;4.50;1.10;;;4.70;99.90;;;;;;5061817;28;20446;-75
2022/04/01 11:17:22;;;;;;;3.90;1.20;;;4.70;99.90;;;;;;5063494;28;20456;-74
2022/04/01 11:20:16;;;;;;;3.90;1.27;;;4.70;99.90;;;;;;5056200;28;20053;-76
2022/04/01 11:22:59;;;;;;;3.35;1.30;;;4.60;99.90;;;;;;5058148;28;20053;-73
2022/04/01 11:25:25;;;;;;;2.70;1.05;;;4.50;99.90;;;;;;5057125;28;20048;-74
2022/04/01 11:27:51;;;;;;;4.10;1.65;;;4.40;99.90;;;;;;5063380;28;20612;-76
2022/04/01 11:30:22;;;;;;;6.13;1.80;;;4.30;99.90;;;;;;5058852;28;20052;-74
2022/04/01 11:32:53;;;;;;;2.53;1.27;;;4.30;99.90;;;;;;5062148;28;20103;-73
2022/04/01 11:35:25;;;;;;;5.82;1.48;;;4.30;99.90;;;;;;5056625;28;20049;-70
2022/04/01 11:37:51;;;;;;;3.15;0.82;;;4.40;99.90;;;;;;5059725;28;20036;-71
2022/04/01 11:40:21;;;;;;;6.95;1.42;;;4.40;99.90;;;;;;5045462;28;20068;-72
2022/04/01 11:42:53;;;;;;;4.97;1.63;;;4.50;99.90;;;;;;5055419;28;20049;-72
2022/04/01 11:45:20;;;;;;;4.15;1.23;;;4.50;99.90;;;;;;5056139;28;20719;-72
2022/04/01 11:47:46;;;;;;;4.82;1.70;;;4.60;99.90;;;;;;5056079;28;20078;-69
2022/04/01 11:50:15;;;;;;;3.42;1.17;;;4.70;99.90;;;;;;5055644;28;20036;-70
2022/04/01 11:52:50;;;;;;;10.02;1.67;;;4.70;99.90;;;;;;5060900;28;20531;-70
2022/04/01 11:55:24;;;;;;;4.93;2.00;;;4.80;99.90;;;;;;5058317;28;20045;-70
2022/04/01 11:57:52;;;;;;;4.25;1.25;;;4.90;99.90;;;;;;5059794;28;20050;-71
2022/04/01 12:00:23;;;;;;;4.90;1.60;;;5.00;99.90;;;;;;5061584;28;20044;-70
2022/04/01 12:02:53;;;;;;;4.30;1.52;;;5.20;99.90;;;;;;5053717;28;20041;-69
2022/04/01 12:05:20;;;;;;;7.82;1.60;;;5.30;99.90;;;;;;5052933;28;20045;-72
2022/04/01 12:11:06;;;;;;;9.05;2.42;;;5.20;99.90;;;;;;5059001;28;20051;-71
2022/04/01 12:13:32;;;;;;;3.95;1.42;;;5.10;99.90;;;;;;5059321;28;20055;-71
2022/04/01 12:15:59;;;;;;;7.45;1.13;;;5.00;99.90;;;;;;5055370;28;20056;-70
2022/04/01 12:18:29;;;;;;;3.97;1.45;;;4.90;99.90;;;;;;5053675;28;20040;-71
2022/04/01 12:21:01;;;;;;;4.57;1.42;;;4.80;99.90;;;;;;5055357;28;20511;-72
2022/04/01 12:23:35;;;;;;;2.58;1.52;;;4.80;99.90;;;;;;5057272;28;20047;-72
2022/04/01 12:26:01;;;;;;;;;;;4.80;99.90;;;;;;5057829;28;20048;-75
2022/04/01 12:28:37;;;;;;;8.38;1.58;;;4.90;99.90;;;;;;5056924;28;19928;-72
2022/04/01 12:31:03;;;;;;;5.68;1.73;;;5.10;99.90;;;;;;5071037;28;20045;-73
2022/04/01 12:33:33;;;;;;;4.38;1.73;;;5.30;99.90;;;;;;5058998;28;20139;-72
2022/04/01 12:36:02;;;;;;;5.65;1.40;;;5.40;99.90;;;;;;5056238;28;20041;-72
2022/04/01 12:38:30;;;;;;;2.78;1.25;;;5.50;99.90;;;;;;5059057;28;20056;-72
2022/04/01 12:40:58;;;;;;;2.45;0.90;;;5.60;99.90;;;;;;5056373;28;20044;-74
2022/04/01 12:43:38;;;;;;;5.78;1.90;;;5.60;99.90;;;;;;5056358;28;20057;-74
2022/04/01 12:46:19;;;;;;;9.32;2.35;;;5.70;99.90;;;;;;5057843;28;20032;-74
2022/04/01 12:48:54;;;;;;;6.50;1.80;;;5.70;99.90;;;;;;5062411;28;20056;-71
2022/04/01 12:51:24;;;;;;;6.45;1.40;;;5.70;99.90;;;;;;5055114;28;20080;-71
2022/04/01 12:54:04;;;;;;;5.07;2.10;;;5.60;99.90;;;;;;5053247;28;20095;-72
2022/04/01 12:56:37;;;;;;;5.07;1.52;;;5.60;99.90;;;;;;5060151;28;20063;-72
2022/04/01 12:59:14;;;;;;;7.15;1.45;;;5.70;99.90;;;;;;5056172;28;21964;-72
2022/04/01 13:01:45;;;;;;;5.93;1.40;;;5.60;99.90;;;;;;5055122;28;20257;-72
2022/04/01 13:04:19;;;;;;;8.57;2.15;;;5.50;99.90;;;;;;5054046;28;20052;-72
2022/04/01 13:07:05;;;;;;;5.03;1.30;;;5.50;99.90;;;;;;5055329;28;20073;-72
2022/04/01 13:09:31;;;;;;;5.20;1.05;;;5.60;99.90;;;;;;5062349;28;20049;-72
2022/04/01 13:12:00;;;;;;;6.10;1.75;;;5.60;99.90;;;;;;5057624;28;20116;-72
2022/04/01 13:14:26;;;;;;;3.83;1.00;;;5.70;99.90;;;;;;5053668;28;20169;-73
2022/04/01 13:16:54;;;;;;;3.67;1.10;;;5.70;99.90;;;;;;5054478;28;20044;-72
2022/04/01 13:19:20;;;;;;;5.78;1.65;;;5.80;99.90;;;;;;5051727;28;20048;-72
2022/04/01 13:21:46;;;;;;;5.05;1.23;;;5.80;99.90;;;;;;5059503;28;20052;-72
2022/04/01 13:24:11;;;;;;;3.80;1.10;;;5.80;99.90;;;;;;5057138;28;20036;-72
2022/04/01 13:26:37;;;;;;;4.05;1.30;;;5.80;99.90;;;;;;5060248;28;20446;-72